METAR Data
IDs: Format: Raw Decoded Include TAF

Data at: 2120 UTC 24 Mar 2019

KLZZ 242115Z AUTO 23008KT 200V260 10SM CLR 26/16 A3000 RMK AO2 T02550160
KLZZ 242055Z AUTO 21008G16KT 10SM CLR 25/16 A3001 RMK AO2 T02530161
KLZZ 242035Z AUTO 21009KT 10SM CLR 26/16 A3001 RMK AO2 T02550163
KLZZ 242015Z AUTO 22010KT 10SM SCT034 25/16 A3002 RMK AO2 T02470163
KLZZ 241955Z AUTO 22007KT 10SM SCT033 25/16 A3002 RMK AO2 T02490164
KLZZ 241935Z AUTO 21009G14KT 180V240 10SM SCT031 24/16 A3003 RMK AO2 T02380162
KLZZ 241915Z AUTO 20009G14KT 10SM BKN029 24/17 A3004 RMK AO2 T02420165
KLZZ 241855Z AUTO 23011G16KT 10SM BKN029 23/16 A3005 RMK AO2 T02310161
KLZZ 241835Z AUTO 21008KT 10SM BKN027 22/16 A3006 RMK AO2 T02230161
KLZZ 241815Z AUTO 23009G16KT 10SM OVC027 22/16 A3007 RMK AO2 T02150160
KLZZ 241755Z AUTO 23009G14KT 10SM OVC025 21/16 A3007 RMK AO2 T02140159 10219 20173
KLZZ 241735Z AUTO 22010G15KT 10SM OVC025 22/16 A3008 RMK AO2 T02180161
KLZZ 241715Z AUTO 21009KT 10SM OVC023 21/16 A3008 RMK AO2 T02130161
KLZZ 241655Z AUTO 23012G15KT 10SM OVC023 21/16 A3009 RMK AO2 T02110160
KLZZ 241635Z AUTO 23011G15KT 10SM OVC023 22/16 A3009 RMK AO2 T02150159
KLZZ 241615Z AUTO 22012G17KT 10SM OVC021 21/16 A3009 RMK AO2 T02110157
KLZZ 241555Z AUTO 22008G14KT 10SM BKN021 21/16 A3008 RMK AO2 T02130158
KLZZ 241535Z AUTO 21012G17KT 10SM SCT021 22/16 A3008 RMK AO2 T02150158
KLZZ 241515Z AUTO 22010KT 190V250 10SM SCT019 21/16 A3008 RMK AO2 T02090164
KLZZ 241455Z AUTO 21010KT 10SM SCT017 SCT027 21/16 A3008 RMK AO2 T02070163
KLZZ 241435Z AUTO 22009G14KT 10SM SCT015 BKN029 20/16 A3008 RMK AO2 T01960162
KLZZ 241415Z AUTO 22010KT 10SM SCT013 OVC029 19/16 A3008 RMK AO2 T01930163
KLZZ 241355Z AUTO 20004KT 10SM SCT015 OVC029 19/16 A3007 RMK AO2 T01850162
KLZZ 241335Z AUTO 18003KT 10SM SCT015 BKN020 OVC027 18/16 A3007 RMK AO2 T01800160
KLZZ 241315Z AUTO 18003KT 10SM OVC020 18/16 A3006 RMK AO2 T01780160
KLZZ 241255Z AUTO 20003KT 10SM OVC020 18/16 A3006 RMK AO2 T01770159
KLZZ 241235Z AUTO 20003KT 10SM OVC020 18/16 A3005 RMK AO2 T01770159
KLZZ 241215Z AUTO 20004KT 10SM OVC020 18/16 A3005 RMK AO2 T01750158
KLZZ 241155Z AUTO 00000KT 10SM OVC020 17/16 A3004 RMK AO2 T01730157 10183 20166
KLZZ 241135Z AUTO 19003KT 10SM OVC022 17/16 A3004 RMK AO2 T01730156
KLZZ 241115Z AUTO 00000KT 10SM OVC024 17/16 A3004 RMK AO2 T01730156
KLZZ 241055Z AUTO 15003KT 10SM OVC022 17/16 A3004 RMK AO2 T01730156
KLZZ 241035Z AUTO 16004KT 10SM OVC024 17/16 A3003 RMK AO2 T01730155
KLZZ 241015Z AUTO 18003KT 10SM SCT015 OVC026 18/16 A3003 RMK AO2 T01750156
KLZZ 240955Z AUTO 18003KT 10SM BKN015 OVC026 18/16 A3003 RMK AO2 T01750156
KLZZ 240935Z AUTO 00000KT 10SM BKN017 OVC027 18/16 A3004 RMK AO2 T01760155
KLZZ 240915Z AUTO 17004KT 10SM SCT017 OVC027 18/16 A3004 RMK AO2 T01750155
KLZZ 240855Z AUTO 18003KT 10SM OVC021 17/15 A3004 RMK AO2 T01720154
KLZZ 240835Z AUTO 18003KT 10SM BKN019 17/15 A3003 RMK AO2 T01700153
KLZZ 240815Z AUTO 17003KT 10SM SCT021 BKN029 17/15 A3004 RMK AO2 T01660150
KLZZ 240755Z AUTO 16003KT 10SM SCT023 BKN029 17/15 A3004 RMK AO2 T01700151
KLZZ 240735Z AUTO 17004KT 10SM SCT022 SCT029 17/15 A3004 RMK AO2 T01700151
KLZZ 240715Z AUTO 17006KT 10SM SCT032 17/15 A3004 RMK AO2 T01720151
KLZZ 240655Z AUTO 19007KT 10SM BKN032 18/15 A3004 RMK AO2 T01760151
KLZZ 240635Z AUTO 18007KT 10SM OVC030 18/15 A3004 RMK AO2 T01810152
KLZZ 240615Z AUTO 18007KT 10SM SCT020 OVC026 18/15 A3005 RMK AO2 T01820153
KLZZ 240555Z AUTO 18007KT 160V220 10SM BKN020 OVC024 18/15 A3005 RMK AO2 T01810152 10201 20178 402030136
KLZZ 240535Z AUTO 19009G16KT 10SM OVC018 18/15 A3005 RMK AO2 T01830153
KLZZ 240515Z AUTO 19008KT 170V230 10SM OVC018 19/16 A3004 RMK AO2 T01850155
KLZZ 240455Z AUTO 18008G14KT 10SM OVC018 19/16 A3004 RMK AO2 T01850155
KLZZ 240435Z AUTO 18008KT 10SM OVC022 18/15 A3004 RMK AO2 T01840154
KLZZ 240415Z AUTO 17004KT 10SM OVC024 18/15 A3004 RMK AO2 T01820153
KLZZ 240355Z AUTO 18007KT 10SM SCT024 18/15 A3004 RMK AO2 T01790152
KLZZ 240335Z AUTO 17006KT 10SM CLR 18/15 A3003 RMK AO2 T01800152
KLZZ 240315Z AUTO 16008KT 10SM CLR 18/15 A3002 RMK AO2 T01820152
KLZZ 240255Z AUTO 17007KT 10SM SCT020 18/15 A3002 RMK AO2 T01810152
KLZZ 240235Z AUTO 17008KT 10SM SCT020 18/15 A3002 RMK AO2 T01830151
KLZZ 240215Z AUTO 17007KT 10SM CLR 18/15 A3002 RMK AO2 T01840152
KLZZ 240155Z AUTO 17006KT 10SM CLR 19/15 A3002 RMK AO2 T01850152
KLZZ 240135Z AUTO 17005KT 10SM CLR 19/15 A3001 RMK AO2 T01870152
KLZZ 240115Z AUTO 17006KT 10SM CLR 19/15 A3001 RMK AO2 T01920152
KLZZ 240055Z AUTO 17008KT 10SM CLR 20/15 A3001 RMK AO2 T01970152
KLZZ 240035Z AUTO 16009KT 10SM SCT027 SCT047 SCT060 20/16 A3002 RMK AO2 T02000155
KLZZ 240015Z AUTO 16004KT 10SM OVC027 20/16 A3002 RMK AO2 T02000158
KLZZ 232355Z AUTO 17004KT 10SM OVC027 20/16 A3002 RMK AO2 T02010157 10203 20180
KLZZ 232335Z AUTO 16004KT 10SM OVC024 20/16 A3001 RMK AO2 T02010157
KLZZ 232315Z AUTO 15006KT 10SM OVC024 20/16 A3001 RMK AO2 T02030159
KLZZ 232255Z AUTO 17007KT 10SM BKN026 OVC033 20/16 A3000 RMK AO2 T02020158
KLZZ 232235Z AUTO 16006KT 10SM OVC026 20/16 A2999 RMK AO2 T02010157
KLZZ 232215Z AUTO 16005KT 10SM BKN024 OVC030 20/16 A2999 RMK AO2 T02010157
KLZZ 232155Z AUTO 15008KT 10SM OVC024 20/16 A3000 RMK AO2 T02000156
KLZZ 232135Z AUTO 20006KT 10SM OVC024 20/16 A3001 RMK AO2 T02000155
KLZZ 232055Z AUTO 21007KT 10SM OVC024 20/16 A3002 RMK AO2 T01960155
KLZZ 232035Z AUTO 20007KT 10SM OVC022 20/16 A3002 RMK AO2 LTG DSNT NE T01980155
KLZZ 232015Z AUTO 19006KT 10SM OVC022 19/16 A3003 RMK AO2 T01940157
KLZZ 231955Z AUTO 19005KT 10SM OVC020 19/15 A3004 RMK AO2 T01930153
KLZZ 231935Z AUTO 19007KT 10SM OVC020 19/16 A3004 RMK AO2 T01920155
KLZZ 231915Z AUTO 19005KT 10SM OVC018 19/16 A3005 RMK AO2 T01910155
KLZZ 231855Z AUTO 20004KT 10SM OVC020 19/16 A3006 RMK AO2 T01890157
KLZZ 231835Z AUTO 18005KT 10SM SCT015 OVC020 18/16 A3007 RMK AO2 T01810157
KLZZ 231815Z AUTO 20008KT 7SM OVC018 18/16 A3007 RMK AO2 T01800156
KLZZ 231755Z AUTO 20005KT 10SM OVC020 18/15 A3008 RMK AO2 T01820154 10188 20146
KLZZ 231735Z AUTO 20006KT 7SM OVC020 18/16 A3008 RMK AO2 T01800155
KLZZ 231715Z AUTO 21007KT 10SM OVC020 19/15 A3008 RMK AO2 LTG DSNT N T01880147
KLZZ 231655Z AUTO 20007KT 10SM OVC020 19/15 A3008 RMK AO2 T01880146
KLZZ 231635Z AUTO 19007KT 10SM OVC020 19/15 A3008 RMK AO2 LTG DSNT N T01870146
KLZZ 231615Z AUTO 16005KT 10SM OVC018 18/14 A3008 RMK AO2 LTG DSNT NE T01770142
KLZZ 231555Z AUTO 17005KT 10SM OVC018 17/14 A3008 RMK AO2 LTG DSNT N T01720138
KLZZ 231535Z AUTO 16007KT 10SM OVC016 17/14 A3007 RMK AO2 LTG DSNT N T01670135
KLZZ 231515Z AUTO 16006KT 10SM OVC016 16/13 A3007 RMK AO2 T01630132
KLZZ 231455Z AUTO 16005KT 10SM OVC018 17/13 A3007 RMK AO2 LTG DSNT NE T01650132
KLZZ 231435Z AUTO 15007KT 10SM OVC020 16/13 A3007 RMK AO2 T01620129
KLZZ 231415Z AUTO 15005KT 10SM OVC022 16/13 A3007 RMK AO2 T01590126
KLZZ 231355Z AUTO 15005KT 10SM OVC024 16/12 A3007 RMK AO2 LTG DSNT N T01560124
KLZZ 231335Z AUTO 15006KT 10SM OVC026 15/12 A3006 RMK AO2 T01530121
KLZZ 231315Z AUTO 15004KT 10SM BKN030 OVC048 15/12 A3005 RMK AO2 LTG DSNT E T01500117
KLZZ 231255Z AUTO 14004KT 10SM SCT020 OVC030 15/11 A3005 RMK AO2 T01470113
KLZZ 231235Z AUTO 15003KT 10SM BKN020 BKN027 OVC032 15/11 A3005 RMK AO2 T01480112
KLZZ 231215Z AUTO 15003KT 10SM OVC020 15/11 A3005 RMK AO2 T01460111
KLZZ 231155Z AUTO 00000KT 10SM -RA BKN020 OVC030 15/11 A3004 RMK AO2 T01480110 10181 20136
KLZZ 231135Z AUTO 00000KT 10SM SCT020 BKN030 BKN036 15/11 A3004 RMK AO2 T01480109
KLZZ 231115Z AUTO 17003KT 10SM SCT021 BKN046 BKN110 14/11 A3003 RMK AO2 LTG DSNT N AND NE T01420105
KLZZ 231055Z AUTO 00000KT 10SM SCT021 SCT110 14/10 A3003 RMK AO2 T01410103
KLZZ 231035Z AUTO 00000KT 10SM CLR 14/10 A3002 RMK AO2 T01430100
KLZZ 231015Z AUTO 22003KT 10SM CLR 14/10 A3001 RMK AO2 T01370096
KLZZ 230955Z AUTO 00000KT 10SM CLR 15/10 A3000 RMK AO2 T01460097
KLZZ 230935Z AUTO 15003KT 10SM CLR 15/10 A2998 RMK AO2 T01480095